sensor_id;sensor_type;location;lat;lon;timestamp;P1;durP1;ratioP1;P2;durP2;ratioP2
28934;SDS011;16044;52.726;-2.108;2023-05-07T00:01:10;15.38;;;13.23;;
28934;SDS011;16044;52.726;-2.108;2023-05-07T00:03:58;15.45;;;13.85;;
28934;SDS011;16044;52.726;-2.108;2023-05-07T00:06:46;18.27;;;16.23;;
28934;SDS011;16044;52.726;-2.108;2023-05-07T00:09:33;19.90;;;16.75;;
28934;SDS011;16044;52.726;-2.108;2023-05-07T00:12:21;18.55;;;16.70;;
28934;SDS011;16044;52.726;-2.108;2023-05-07T00:15:09;17.35;;;15.65;;
28934;SDS011;16044;52.726;-2.108;2023-05-07T00:17:57;19.42;;;17.42;;
28934;SDS011;16044;52.726;-2.108;2023-05-07T00:20:46;19.60;;;17.45;;
28934;SDS011;16044;52.726;-2.108;2023-05-07T00:23:34;18.70;;;16.80;;
28934;SDS011;16044;52.726;-2.108;2023-05-07T00:26:21;20.08;;;17.90;;
28934;SDS011;16044;52.726;-2.108;2023-05-07T00:29:09;17.48;;;15.68;;
28934;SDS011;16044;52.726;-2.108;2023-05-07T00:31:56;19.17;;;17.17;;
28934;SDS011;16044;52.726;-2.108;2023-05-07T00:34:44;19.27;;;17.17;;
28934;SDS011;16044;52.726;-2.108;2023-05-07T00:37:31;19.75;;;17.63;;
28934;SDS011;16044;52.726;-2.108;2023-05-07T00:40:19;18.70;;;16.90;;
28934;SDS011;16044;52.726;-2.108;2023-05-07T00:43:06;20.75;;;17.35;;
28934;SDS011;16044;52.726;-2.108;2023-05-07T00:45:54;19.30;;;17.27;;
28934;SDS011;16044;52.726;-2.108;2023-05-07T00:48:42;20.08;;;18.08;;
28934;SDS011;16044;52.726;-2.108;2023-05-07T00:51:30;21.20;;;18.42;;
28934;SDS011;16044;52.726;-2.108;2023-05-07T00:54:18;18.30;;;16.35;;
28934;SDS011;16044;52.726;-2.108;2023-05-07T00:57:06;20.88;;;18.70;;
28934;SDS011;16044;52.726;-2.108;2023-05-07T00:59:54;18.20;;;16.35;;
28934;SDS011;16044;52.726;-2.108;2023-05-07T01:02:42;17.80;;;16.00;;
28934;SDS011;16044;52.726;-2.108;2023-05-07T01:05:31;16.83;;;15.10;;
28934;SDS011;16044;52.726;-2.108;2023-05-07T01:08:19;21.40;;;18.80;;
28934;SDS011;16044;52.726;-2.108;2023-05-07T01:11:07;19.60;;;17.48;;
28934;SDS011;16044;52.726;-2.108;2023-05-07T01:13:56;21.23;;;19.02;;
28934;SDS011;16044;52.726;-2.108;2023-05-07T01:16:46;17.55;;;15.15;;
28934;SDS011;16044;52.726;-2.108;2023-05-07T01:19:35;20.45;;;17.08;;
28934;SDS011;16044;52.726;-2.108;2023-05-07T01:22:30;20.58;;;18.35;;
28934;SDS011;16044;52.726;-2.108;2023-05-07T01:25:23;16.88;;;14.65;;
28934;SDS011;16044;52.726;-2.108;2023-05-07T01:28:11;20.30;;;18.05;;
28934;SDS011;16044;52.726;-2.108;2023-05-07T01:31:00;24.05;;;20.30;;
28934;SDS011;16044;52.726;-2.108;2023-05-07T01:33:50;19.33;;;16.85;;
28934;SDS011;16044;52.726;-2.108;2023-05-07T01:36:39;22.63;;;20.15;;
28934;SDS011;16044;52.726;-2.108;2023-05-07T01:39:30;21.17;;;17.63;;
28934;SDS011;16044;52.726;-2.108;2023-05-07T01:42:19;22.23;;;17.88;;
28934;SDS011;16044;52.726;-2.108;2023-05-07T01:45:07;27.02;;;21.67;;
28934;SDS011;16044;52.726;-2.108;2023-05-07T01:47:55;19.92;;;17.80;;
28934;SDS011;16044;52.726;-2.108;2023-05-07T01:50:44;21.15;;;18.52;;
28934;SDS011;16044;52.726;-2.108;2023-05-07T01:53:36;23.95;;;20.95;;
28934;SDS011;16044;52.726;-2.108;2023-05-07T01:56:24;24.10;;;20.55;;
28934;SDS011;16044;52.726;-2.108;2023-05-07T01:59:12;22.52;;;18.48;;
28934;SDS011;16044;52.726;-2.108;2023-05-07T02:02:00;23.35;;;19.80;;
28934;SDS011;16044;52.726;-2.108;2023-05-07T02:04:48;22.90;;;20.50;;
28934;SDS011;16044;52.726;-2.108;2023-05-07T02:07:35;24.17;;;20.65;;
28934;SDS011;16044;52.726;-2.108;2023-05-07T02:10:23;23.00;;;20.20;;
28934;SDS011;16044;52.726;-2.108;2023-05-07T02:13:10;22.63;;;18.42;;
28934;SDS011;16044;52.726;-2.108;2023-05-07T02:15:58;20.92;;;18.10;;
28934;SDS011;16044;52.726;-2.108;2023-05-07T02:18:45;21.90;;;18.60;;
28934;SDS011;16044;52.726;-2.108;2023-05-07T02:21:33;21.05;;;18.50;;
28934;SDS011;16044;52.726;-2.108;2023-05-07T02:24:20;20.88;;;18.55;;
28934;SDS011;16044;52.726;-2.108;2023-05-07T02:27:08;22.10;;;19.42;;
28934;SDS011;16044;52.726;-2.108;2023-05-07T02:29:56;21.65;;;18.83;;
28934;SDS011;16044;52.726;-2.108;2023-05-07T02:32:43;22.40;;;19.70;;
28934;SDS011;16044;52.726;-2.108;2023-05-07T02:35:31;23.48;;;20.98;;
28934;SDS011;16044;52.726;-2.108;2023-05-07T02:38:19;23.38;;;20.50;;
28934;SDS011;16044;52.726;-2.108;2023-05-07T02:41:06;23.40;;;19.95;;
28934;SDS011;16044;52.726;-2.108;2023-05-07T02:43:54;24.08;;;20.30;;
28934;SDS011;16044;52.726;-2.108;2023-05-07T02:46:41;20.52;;;18.33;;
28934;SDS011;16044;52.726;-2.108;2023-05-07T02:49:29;24.33;;;19.17;;
28934;SDS011;16044;52.726;-2.108;2023-05-07T02:52:16;24.77;;;20.83;;
28934;SDS011;16044;52.726;-2.108;2023-05-07T02:55:04;24.65;;;20.77;;
28934;SDS011;16044;52.726;-2.108;2023-05-07T02:57:52;23.77;;;20.77;;
28934;SDS011;16044;52.726;-2.108;2023-05-07T03:00:39;23.25;;;20.40;;
28934;SDS011;16044;52.726;-2.108;2023-05-07T03:03:27;21.98;;;19.35;;
28934;SDS011;16044;52.726;-2.108;2023-05-07T03:06:14;28.23;;;22.75;;
28934;SDS011;16044;52.726;-2.108;2023-05-07T03:09:02;26.58;;;22.38;;
28934;SDS011;16044;52.726;-2.108;2023-05-07T03:11:49;24.02;;;21.35;;
28934;SDS011;16044;52.726;-2.108;2023-05-07T03:14:37;24.90;;;22.08;;
28934;SDS011;16044;52.726;-2.108;2023-05-07T03:17:24;25.38;;;22.63;;
28934;SDS011;16044;52.726;-2.108;2023-05-07T03:20:12;25.52;;;20.95;;
28934;SDS011;16044;52.726;-2.108;2023-05-07T03:23:00;28.08;;;22.65;;
28934;SDS011;16044;52.726;-2.108;2023-05-07T03:25:48;27.33;;;22.45;;
28934;SDS011;16044;52.726;-2.108;2023-05-07T03:28:36;29.08;;;23.58;;
28934;SDS011;16044;52.726;-2.108;2023-05-07T03:31:24;27.17;;;21.45;;
28934;SDS011;16044;52.726;-2.108;2023-05-07T03:34:12;25.70;;;21.45;;
28934;SDS011;16044;52.726;-2.108;2023-05-07T03:36:59;27.42;;;22.63;;
28934;SDS011;16044;52.726;-2.108;2023-05-07T03:39:47;24.70;;;21.08;;
28934;SDS011;16044;52.726;-2.108;2023-05-07T03:42:34;26.50;;;22.23;;
28934;SDS011;16044;52.726;-2.108;2023-05-07T03:45:22;27.83;;;23.13;;
28934;SDS011;16044;52.726;-2.108;2023-05-07T03:48:09;27.85;;;22.60;;
28934;SDS011;16044;52.726;-2.108;2023-05-07T03:50:57;28.30;;;22.65;;
28934;SDS011;16044;52.726;-2.108;2023-05-07T03:53:45;30.48;;;24.65;;
28934;SDS011;16044;52.726;-2.108;2023-05-07T03:56:33;32.60;;;23.77;;
28934;SDS011;16044;52.726;-2.108;2023-05-07T03:59:21;32.40;;;24.35;;
28934;SDS011;16044;52.726;-2.108;2023-05-07T04:02:09;34.53;;;25.88;;
28934;SDS011;16044;52.726;-2.108;2023-05-07T04:04:56;29.67;;;23.75;;
28934;SDS011;16044;52.726;-2.108;2023-05-07T04:07:44;33.08;;;25.00;;
28934;SDS011;16044;52.726;-2.108;2023-05-07T04:10:31;33.22;;;25.95;;
28934;SDS011;16044;52.726;-2.108;2023-05-07T04:13:19;31.70;;;22.77;;
28934;SDS011;16044;52.726;-2.108;2023-05-07T04:16:06;31.60;;;22.77;;
28934;SDS011;16044;52.726;-2.108;2023-05-07T04:18:55;31.23;;;23.15;;
28934;SDS011;16044;52.726;-2.108;2023-05-07T04:21:42;28.73;;;20.17;;
28934;SDS011;16044;52.726;-2.108;2023-05-07T04:24:33;24.65;;;17.00;;
28934;SDS011;16044;52.726;-2.108;2023-05-07T04:27:20;20.85;;;14.52;;
28934;SDS011;16044;52.726;-2.108;2023-05-07T04:30:08;24.00;;;14.48;;
28934;SDS011;16044;52.726;-2.108;2023-05-07T04:32:57;20.05;;;13.07;;
28934;SDS011;16044;52.726;-2.108;2023-05-07T04:35:44;19.63;;;12.60;;
28934;SDS011;16044;52.726;-2.108;2023-05-07T04:38:33;18.85;;;12.15;;
28934;SDS011;16044;52.726;-2.108;2023-05-07T04:41:20;16.23;;;9.63;;
28934;SDS011;16044;52.726;-2.108;2023-05-07T04:44:08;16.45;;;9.20;;
28934;SDS011;16044;52.726;-2.108;2023-05-07T04:46:56;16.27;;;8.73;;
28934;SDS011;16044;52.726;-2.108;2023-05-07T04:49:44;15.43;;;7.20;;
28934;SDS011;16044;52.726;-2.108;2023-05-07T04:52:32;14.02;;;6.40;;
28934;SDS011;16044;52.726;-2.108;2023-05-07T04:55:19;13.77;;;6.25;;
28934;SDS011;16044;52.726;-2.108;2023-05-07T04:58:07;13.35;;;6.25;;
28934;SDS011;16044;52.726;-2.108;2023-05-07T05:00:54;15.98;;;6.30;;
28934;SDS011;16044;52.726;-2.108;2023-05-07T05:03:43;17.67;;;6.03;;
28934;SDS011;16044;52.726;-2.108;2023-05-07T05:06:30;15.45;;;6.15;;
28934;SDS011;16044;52.726;-2.108;2023-05-07T05:09:18;10.73;;;5.35;;
28934;SDS011;16044;52.726;-2.108;2023-05-07T05:12:05;17.15;;;6.38;;
28934;SDS011;16044;52.726;-2.108;2023-05-07T05:14:54;17.20;;;6.00;;
28934;SDS011;16044;52.726;-2.108;2023-05-07T05:17:41;16.45;;;6.55;;
28934;SDS011;16044;52.726;-2.108;2023-05-07T05:20:29;13.70;;;5.93;;
28934;SDS011;16044;52.726;-2.108;2023-05-07T05:23:17;18.83;;;6.97;;
28934;SDS011;16044;52.726;-2.108;2023-05-07T05:26:04;11.18;;;5.88;;
28934;SDS011;16044;52.726;-2.108;2023-05-07T05:28:55;14.05;;;6.35;;
28934;SDS011;16044;52.726;-2.108;2023-05-07T05:31:42;18.55;;;6.10;;
28934;SDS011;16044;52.726;-2.108;2023-05-07T05:34:30;13.13;;;5.43;;
28934;SDS011;16044;52.726;-2.108;2023-05-07T05:37:17;13.32;;;5.68;;
28934;SDS011;16044;52.726;-2.108;2023-05-07T05:40:05;12.60;;;5.13;;
28934;SDS011;16044;52.726;-2.108;2023-05-07T05:42:54;11.60;;;4.93;;
28934;SDS011;16044;52.726;-2.108;2023-05-07T05:45:41;11.65;;;4.88;;
28934;SDS011;16044;52.726;-2.108;2023-05-07T05:48:29;10.38;;;4.65;;
28934;SDS011;16044;52.726;-2.108;2023-05-07T05:51:16;14.90;;;5.68;;
28934;SDS011;16044;52.726;-2.108;2023-05-07T05:54:04;15.25;;;5.53;;
28934;SDS011;16044;52.726;-2.108;2023-05-07T05:56:52;12.50;;;5.00;;
28934;SDS011;16044;52.726;-2.108;2023-05-07T05:59:39;15.40;;;5.10;;
28934;SDS011;16044;52.726;-2.108;2023-05-07T06:02:27;17.13;;;5.30;;
28934;SDS011;16044;52.726;-2.108;2023-05-07T06:05:14;19.17;;;5.25;;
28934;SDS011;16044;52.726;-2.108;2023-05-07T06:08:02;15.18;;;4.88;;
28934;SDS011;16044;52.726;-2.108;2023-05-07T06:10:50;18.45;;;4.95;;
28934;SDS011;16044;52.726;-2.108;2023-05-07T06:13:37;14.88;;;5.43;;
28934;SDS011;16044;52.726;-2.108;2023-05-07T06:16:25;17.70;;;5.15;;
28934;SDS011;16044;52.726;-2.108;2023-05-07T06:19:13;15.85;;;4.60;;
28934;SDS011;16044;52.726;-2.108;2023-05-07T06:22:00;19.45;;;5.53;;
28934;SDS011;16044;52.726;-2.108;2023-05-07T06:24:49;16.92;;;5.40;;
28934;SDS011;16044;52.726;-2.108;2023-05-07T06:27:37;16.77;;;5.20;;
28934;SDS011;16044;52.726;-2.108;2023-05-07T06:30:26;17.88;;;5.05;;
28934;SDS011;16044;52.726;-2.108;2023-05-07T06:33:14;15.00;;;4.75;;
28934;SDS011;16044;52.726;-2.108;2023-05-07T06:39:45;17.15;;;5.18;;
28934;SDS011;16044;52.726;-2.108;2023-05-07T06:42:32;15.35;;;5.18;;
28934;SDS011;16044;52.726;-2.108;2023-05-07T06:45:20;18.92;;;5.03;;
28934;SDS011;16044;52.726;-2.108;2023-05-07T06:48:08;15.70;;;5.25;;
28934;SDS011;16044;52.726;-2.108;2023-05-07T06:50:55;13.55;;;4.25;;
28934;SDS011;16044;52.726;-2.108;2023-05-07T06:53:44;17.45;;;4.95;;
28934;SDS011;16044;52.726;-2.108;2023-05-07T06:56:33;15.98;;;5.10;;
28934;SDS011;16044;52.726;-2.108;2023-05-07T06:59:21;14.32;;;5.82;;
28934;SDS011;16044;52.726;-2.108;2023-05-07T07:02:08;13.93;;;4.15;;
28934;SDS011;16044;52.726;-2.108;2023-05-07T07:04:56;14.73;;;4.80;;
28934;SDS011;16044;52.726;-2.108;2023-05-07T07:07:43;14.45;;;4.45;;
28934;SDS011;16044;52.726;-2.108;2023-05-07T07:10:31;15.10;;;4.53;;
28934;SDS011;16044;52.726;-2.108;2023-05-07T07:13:19;11.38;;;4.40;;
28934;SDS011;16044;52.726;-2.108;2023-05-07T07:16:07;21.40;;;4.82;;
28934;SDS011;16044;52.726;-2.108;2023-05-07T07:18:54;14.90;;;4.38;;
28934;SDS011;16044;52.726;-2.108;2023-05-07T07:21:42;12.07;;;3.92;;
28934;SDS011;16044;52.726;-2.108;2023-05-07T07:24:29;13.13;;;4.57;;
28934;SDS011;16044;52.726;-2.108;2023-05-07T07:27:17;13.85;;;3.92;;
28934;SDS011;16044;52.726;-2.108;2023-05-07T07:30:05;16.35;;;4.40;;
28934;SDS011;16044;52.726;-2.108;2023-05-07T07:32:53;13.10;;;4.20;;
28934;SDS011;16044;52.726;-2.108;2023-05-07T07:35:42;13.23;;;4.13;;
28934;SDS011;16044;52.726;-2.108;2023-05-07T07:38:29;14.73;;;3.85;;
28934;SDS011;16044;52.726;-2.108;2023-05-07T07:41:17;11.88;;;3.88;;
28934;SDS011;16044;52.726;-2.108;2023-05-07T07:44:04;11.20;;;3.95;;
28934;SDS011;16044;52.726;-2.108;2023-05-07T07:46:54;13.02;;;3.92;;
28934;SDS011;16044;52.726;-2.108;2023-05-07T07:49:41;11.98;;;3.58;;
28934;SDS011;16044;52.726;-2.108;2023-05-07T07:52:29;15.95;;;3.75;;
28934;SDS011;16044;52.726;-2.108;2023-05-07T07:55:19;11.95;;;3.85;;
28934;SDS011;16044;52.726;-2.108;2023-05-07T07:58:09;15.32;;;3.88;;
28934;SDS011;16044;52.726;-2.108;2023-05-07T08:00:57;9.18;;;3.13;;
28934;SDS011;16044;52.726;-2.108;2023-05-07T08:03:45;11.70;;;3.58;;
28934;SDS011;16044;52.726;-2.108;2023-05-07T08:06:32;8.73;;;2.97;;
28934;SDS011;16044;52.726;-2.108;2023-05-07T08:09:20;12.90;;;3.47;;
28934;SDS011;16044;52.726;-2.108;2023-05-07T08:12:07;11.68;;;3.47;;
28934;SDS011;16044;52.726;-2.108;2023-05-07T08:14:55;11.25;;;3.53;;
28934;SDS011;16044;52.726;-2.108;2023-05-07T08:17:43;12.00;;;3.10;;
28934;SDS011;16044;52.726;-2.108;2023-05-07T08:20:31;12.15;;;3.20;;
28934;SDS011;16044;52.726;-2.108;2023-05-07T08:23:18;9.65;;;2.85;;
28934;SDS011;16044;52.726;-2.108;2023-05-07T08:26:07;11.45;;;3.13;;
28934;SDS011;16044;52.726;-2.108;2023-05-07T08:28:55;9.63;;;3.30;;
28934;SDS011;16044;52.726;-2.108;2023-05-07T08:31:42;10.00;;;3.55;;
28934;SDS011;16044;52.726;-2.108;2023-05-07T08:34:30;12.25;;;3.40;;
28934;SDS011;16044;52.726;-2.108;2023-05-07T08:37:17;11.85;;;3.65;;
28934;SDS011;16044;52.726;-2.108;2023-05-07T08:40:05;9.77;;;3.40;;
28934;SDS011;16044;52.726;-2.108;2023-05-07T08:42:58;13.40;;;3.72;;
28934;SDS011;16044;52.726;-2.108;2023-05-07T08:45:47;11.95;;;3.70;;
28934;SDS011;16044;52.726;-2.108;2023-05-07T08:48:36;15.18;;;4.40;;
28934;SDS011;16044;52.726;-2.108;2023-05-07T08:51:24;15.10;;;4.30;;
28934;SDS011;16044;52.726;-2.108;2023-05-07T08:54:12;12.75;;;3.80;;
28934;SDS011;16044;52.726;-2.108;2023-05-07T08:57:03;15.55;;;4.30;;
28934;SDS011;16044;52.726;-2.108;2023-05-07T08:59:51;13.30;;;4.38;;
28934;SDS011;16044;52.726;-2.108;2023-05-07T09:02:38;10.35;;;4.05;;
28934;SDS011;16044;52.726;-2.108;2023-05-07T09:05:26;11.38;;;3.80;;
28934;SDS011;16044;52.726;-2.108;2023-05-07T09:08:14;8.93;;;3.20;;
28934;SDS011;16044;52.726;-2.108;2023-05-07T09:14:15;12.05;;;3.13;;
28934;SDS011;16044;52.726;-2.108;2023-05-07T09:17:02;12.65;;;4.13;;
28934;SDS011;16044;52.726;-2.108;2023-05-07T09:19:50;11.45;;;4.05;;
28934;SDS011;16044;52.726;-2.108;2023-05-07T09:22:37;10.60;;;3.53;;
28934;SDS011;16044;52.726;-2.108;2023-05-07T09:25:29;13.50;;;3.85;;
28934;SDS011;16044;52.726;-2.108;2023-05-07T09:28:18;10.68;;;3.80;;
28934;SDS011;16044;52.726;-2.108;2023-05-07T09:31:06;10.45;;;3.28;;
28934;SDS011;16044;52.726;-2.108;2023-05-07T09:33:54;7.38;;;3.20;;
28934;SDS011;16044;52.726;-2.108;2023-05-07T09:36:43;10.40;;;3.53;;
28934;SDS011;16044;52.726;-2.108;2023-05-07T09:42:34;9.85;;;3.65;;
28934;SDS011;16044;52.726;-2.108;2023-05-07T09:45:28;8.57;;;2.90;;
28934;SDS011;16044;52.726;-2.108;2023-05-07T09:48:16;7.45;;;3.15;;
28934;SDS011;16044;52.726;-2.108;2023-05-07T09:51:06;10.57;;;2.95;;
28934;SDS011;16044;52.726;-2.108;2023-05-07T09:54:09;7.68;;;2.90;;
28934;SDS011;16044;52.726;-2.108;2023-05-07T09:56:57;9.35;;;2.92;;
28934;SDS011;16044;52.726;-2.108;2023-05-07T09:59:46;8.27;;;2.92;;
28934;SDS011;16044;52.726;-2.108;2023-05-07T10:02:35;7.63;;;2.80;;
28934;SDS011;16044;52.726;-2.108;2023-05-07T10:05:24;9.52;;;2.70;;
28934;SDS011;16044;52.726;-2.108;2023-05-07T10:08:12;9.85;;;3.17;;
28934;SDS011;16044;52.726;-2.108;2023-05-07T10:11:04;7.75;;;2.60;;
28934;SDS011;16044;52.726;-2.108;2023-05-07T10:13:52;7.55;;;3.10;;
28934;SDS011;16044;52.726;-2.108;2023-05-07T10:16:40;6.72;;;2.58;;
28934;SDS011;16044;52.726;-2.108;2023-05-07T10:19:28;6.95;;;2.70;;
28934;SDS011;16044;52.726;-2.108;2023-05-07T10:22:16;8.63;;;2.40;;
28934;SDS011;16044;52.726;-2.108;2023-05-07T10:25:06;5.47;;;2.33;;
28934;SDS011;16044;52.726;-2.108;2023-05-07T10:28:12;10.82;;;2.70;;
28934;SDS011;16044;52.726;-2.108;2023-05-07T10:34:10;8.52;;;2.63;;
28934;SDS011;16044;52.726;-2.108;2023-05-07T10:37:00;9.40;;;2.78;;
28934;SDS011;16044;52.726;-2.108;2023-05-07T10:39:49;9.13;;;2.78;;
28934;SDS011;16044;52.726;-2.108;2023-05-07T10:42:36;9.50;;;2.72;;
28934;SDS011;16044;52.726;-2.108;2023-05-07T10:45:24;6.43;;;1.90;;
28934;SDS011;16044;52.726;-2.108;2023-05-07T10:48:13;9.95;;;2.50;;
28934;SDS011;16044;52.726;-2.108;2023-05-07T10:51:18;7.22;;;2.40;;
28934;SDS011;16044;52.726;-2.108;2023-05-07T10:57:00;6.97;;;2.35;;
28934;SDS011;16044;52.726;-2.108;2023-05-07T11:03:25;6.15;;;2.00;;
28934;SDS011;16044;52.726;-2.108;2023-05-07T11:06:15;8.38;;;2.30;;
28934;SDS011;16044;52.726;-2.108;2023-05-07T11:09:03;6.55;;;2.20;;
28934;SDS011;16044;52.726;-2.108;2023-05-07T11:11:50;7.35;;;2.20;;
28934;SDS011;16044;52.726;-2.108;2023-05-07T11:17:29;4.75;;;1.92;;
28934;SDS011;16044;52.726;-2.108;2023-05-07T11:26:48;7.57;;;1.75;;
28934;SDS011;16044;52.726;-2.108;2023-05-07T11:29:37;7.68;;;1.67;;
28934;SDS011;16044;52.726;-2.108;2023-05-07T11:32:25;5.78;;;1.70;;
28934;SDS011;16044;52.726;-2.108;2023-05-07T11:35:18;4.18;;;1.50;;
28934;SDS011;16044;52.726;-2.108;2023-05-07T11:38:11;7.07;;;1.77;;
28934;SDS011;16044;52.726;-2.108;2023-05-07T11:41:00;6.25;;;1.40;;
28934;SDS011;16044;52.726;-2.108;2023-05-07T11:43:55;6.22;;;1.70;;
28934;SDS011;16044;52.726;-2.108;2023-05-07T11:46:44;4.93;;;1.92;;
28934;SDS011;16044;52.726;-2.108;2023-05-07T11:49:32;7.60;;;1.92;;
28934;SDS011;16044;52.726;-2.108;2023-05-07T11:52:21;5.25;;;1.55;;
28934;SDS011;16044;52.726;-2.108;2023-05-07T11:55:10;3.95;;;1.52;;
28934;SDS011;16044;52.726;-2.108;2023-05-07T11:57:58;6.38;;;1.65;;
28934;SDS011;16044;52.726;-2.108;2023-05-07T12:00:49;7.90;;;1.60;;
28934;SDS011;16044;52.726;-2.108;2023-05-07T12:03:41;5.07;;;1.77;;
28934;SDS011;16044;52.726;-2.108;2023-05-07T12:06:30;4.93;;;1.60;;
28934;SDS011;16044;52.726;-2.108;2023-05-07T12:09:18;7.25;;;1.70;;
28934;SDS011;16044;52.726;-2.108;2023-05-07T12:12:06;5.78;;;1.35;;
28934;SDS011;16044;52.726;-2.108;2023-05-07T12:14:53;5.97;;;1.80;;
28934;SDS011;16044;52.726;-2.108;2023-05-07T12:17:41;7.50;;;1.80;;
28934;SDS011;16044;52.726;-2.108;2023-05-07T12:20:29;7.93;;;1.85;;
28934;SDS011;16044;52.726;-2.108;2023-05-07T12:23:17;4.18;;;1.30;;
28934;SDS011;16044;52.726;-2.108;2023-05-07T12:26:05;5.55;;;1.55;;
28934;SDS011;16044;52.726;-2.108;2023-05-07T12:28:53;5.50;;;1.42;;
28934;SDS011;16044;52.726;-2.108;2023-05-07T12:31:41;7.30;;;1.45;;
28934;SDS011;16044;52.726;-2.108;2023-05-07T12:34:29;6.57;;;1.50;;
28934;SDS011;16044;52.726;-2.108;2023-05-07T12:37:22;4.85;;;1.40;;
28934;SDS011;16044;52.726;-2.108;2023-05-07T12:40:13;4.55;;;1.27;;
28934;SDS011;16044;52.726;-2.108;2023-05-07T12:43:01;6.95;;;1.45;;
28934;SDS011;16044;52.726;-2.108;2023-05-07T12:45:49;5.50;;;1.52;;
28934;SDS011;16044;52.726;-2.108;2023-05-07T12:48:38;5.65;;;1.50;;
28934;SDS011;16044;52.726;-2.108;2023-05-07T12:51:30;5.90;;;1.60;;
28934;SDS011;16044;52.726;-2.108;2023-05-07T12:54:27;4.85;;;1.30;;
28934;SDS011;16044;52.726;-2.108;2023-05-07T12:57:19;4.97;;;1.52;;
28934;SDS011;16044;52.726;-2.108;2023-05-07T13:00:08;5.10;;;1.05;;
28934;SDS011;16044;52.726;-2.108;2023-05-07T13:02:56;4.03;;;1.00;;
28934;SDS011;16044;52.726;-2.108;2023-05-07T13:05:46;4.40;;;1.20;;
28934;SDS011;16044;52.726;-2.108;2023-05-07T13:08:34;5.50;;;1.40;;
28934;SDS011;16044;52.726;-2.108;2023-05-07T13:11:24;4.15;;;1.38;;
28934;SDS011;16044;52.726;-2.108;2023-05-07T13:14:12;4.25;;;1.23;;
28934;SDS011;16044;52.726;-2.108;2023-05-07T13:16:59;5.93;;;1.08;;
28934;SDS011;16044;52.726;-2.108;2023-05-07T13:19:47;4.45;;;1.30;;
28934;SDS011;16044;52.726;-2.108;2023-05-07T13:22:34;4.45;;;1.10;;
28934;SDS011;16044;52.726;-2.108;2023-05-07T13:25:22;5.15;;;1.30;;
28934;SDS011;16044;52.726;-2.108;2023-05-07T13:28:10;4.53;;;1.30;;
28934;SDS011;16044;52.726;-2.108;2023-05-07T13:30:57;4.50;;;1.38;;
28934;SDS011;16044;52.726;-2.108;2023-05-07T13:33:45;3.90;;;1.00;;
28934;SDS011;16044;52.726;-2.108;2023-05-07T13:36:32;3.42;;;1.27;;
28934;SDS011;16044;52.726;-2.108;2023-05-07T13:39:23;8.70;;;1.42;;
28934;SDS011;16044;52.726;-2.108;2023-05-07T13:42:11;3.70;;;1.13;;
28934;SDS011;16044;52.726;-2.108;2023-05-07T13:44:59;4.07;;;1.30;;
28934;SDS011;16044;52.726;-2.108;2023-05-07T13:47:47;6.45;;;1.75;;
28934;SDS011;16044;52.726;-2.108;2023-05-07T13:50:36;4.38;;;1.40;;
28934;SDS011;16044;52.726;-2.108;2023-05-07T13:53:23;4.95;;;1.17;;
28934;SDS011;16044;52.726;-2.108;2023-05-07T13:56:11;4.72;;;1.40;;
28934;SDS011;16044;52.726;-2.108;2023-05-07T13:58:58;4.35;;;1.30;;
28934;SDS011;16044;52.726;-2.108;2023-05-07T14:01:46;5.00;;;1.45;;
28934;SDS011;16044;52.726;-2.108;2023-05-07T14:04:34;3.45;;;1.20;;
28934;SDS011;16044;52.726;-2.108;2023-05-07T14:07:22;3.78;;;1.15;;
28934;SDS011;16044;52.726;-2.108;2023-05-07T14:10:10;3.80;;;1.30;;
28934;SDS011;16044;52.726;-2.108;2023-05-07T14:12:58;4.80;;;1.20;;
28934;SDS011;16044;52.726;-2.108;2023-05-07T14:15:46;5.38;;;1.55;;
28934;SDS011;16044;52.726;-2.108;2023-05-07T14:18:35;3.60;;;1.00;;
28934;SDS011;16044;52.726;-2.108;2023-05-07T14:21:23;3.92;;;1.02;;
28934;SDS011;16044;52.726;-2.108;2023-05-07T14:24:11;3.65;;;1.13;;
28934;SDS011;16044;52.726;-2.108;2023-05-07T14:26:59;3.58;;;1.30;;
28934;SDS011;16044;52.726;-2.108;2023-05-07T14:29:46;4.32;;;1.40;;
28934;SDS011;16044;52.726;-2.108;2023-05-07T14:32:37;5.72;;;1.45;;
28934;SDS011;16044;52.726;-2.108;2023-05-07T14:35:25;5.57;;;1.42;;
28934;SDS011;16044;52.726;-2.108;2023-05-07T14:38:12;3.28;;;1.20;;
28934;SDS011;16044;52.726;-2.108;2023-05-07T14:41:00;3.08;;;1.20;;
28934;SDS011;16044;52.726;-2.108;2023-05-07T14:43:47;3.88;;;1.45;;
28934;SDS011;16044;52.726;-2.108;2023-05-07T14:46:36;3.08;;;1.10;;
28934;SDS011;16044;52.726;-2.108;2023-05-07T14:49:24;2.85;;;1.10;;
28934;SDS011;16044;52.726;-2.108;2023-05-07T14:52:11;3.75;;;0.90;;
28934;SDS011;16044;52.726;-2.108;2023-05-07T14:54:59;2.63;;;0.90;;
28934;SDS011;16044;52.726;-2.108;2023-05-07T14:57:47;2.67;;;0.95;;
28934;SDS011;16044;52.726;-2.108;2023-05-07T15:00:34;2.47;;;1.00;;
28934;SDS011;16044;52.726;-2.108;2023-05-07T15:03:22;3.15;;;1.00;;
28934;SDS011;16044;52.726;-2.108;2023-05-07T15:06:10;2.72;;;0.80;;
28934;SDS011;16044;52.726;-2.108;2023-05-07T15:08:57;3.85;;;1.13;;
28934;SDS011;16044;52.726;-2.108;2023-05-07T15:11:45;2.80;;;0.70;;
28934;SDS011;16044;52.726;-2.108;2023-05-07T15:14:32;2.65;;;1.00;;
28934;SDS011;16044;52.726;-2.108;2023-05-07T15:17:20;2.95;;;0.93;;
28934;SDS011;16044;52.726;-2.108;2023-05-07T15:20:08;2.67;;;1.05;;
28934;SDS011;16044;52.726;-2.108;2023-05-07T15:22:56;2.75;;;0.90;;
28934;SDS011;16044;52.726;-2.108;2023-05-07T15:25:43;2.78;;;0.80;;
28934;SDS011;16044;52.726;-2.108;2023-05-07T15:28:33;3.15;;;0.73;;
28934;SDS011;16044;52.726;-2.108;2023-05-07T15:31:21;2.00;;;0.70;;
28934;SDS011;16044;52.726;-2.108;2023-05-07T15:34:09;1.60;;;0.60;;
28934;SDS011;16044;52.726;-2.108;2023-05-07T15:36:56;2.35;;;0.90;;
28934;SDS011;16044;52.726;-2.108;2023-05-07T15:39:44;2.40;;;0.70;;
28934;SDS011;16044;52.726;-2.108;2023-05-07T15:42:32;2.88;;;0.90;;
28934;SDS011;16044;52.726;-2.108;2023-05-07T15:45:20;1.58;;;0.50;;
28934;SDS011;16044;52.726;-2.108;2023-05-07T15:48:08;2.28;;;0.80;;
28934;SDS011;16044;52.726;-2.108;2023-05-07T15:50:57;1.63;;;0.60;;
28934;SDS011;16044;52.726;-2.108;2023-05-07T15:53:45;2.10;;;0.60;;
28934;SDS011;16044;52.726;-2.108;2023-05-07T15:56:33;1.15;;;0.50;;
28934;SDS011;16044;52.726;-2.108;2023-05-07T15:59:21;2.00;;;0.70;;
28934;SDS011;16044;52.726;-2.108;2023-05-07T16:02:08;2.80;;;0.93;;
28934;SDS011;16044;52.726;-2.108;2023-05-07T16:04:56;2.17;;;0.80;;
28934;SDS011;16044;52.726;-2.108;2023-05-07T16:07:43;1.88;;;0.65;;
28934;SDS011;16044;52.726;-2.108;2023-05-07T16:10:31;3.55;;;1.10;;
28934;SDS011;16044;52.726;-2.108;2023-05-07T16:13:18;1.63;;;0.70;;
28934;SDS011;16044;52.726;-2.108;2023-05-07T16:16:07;2.75;;;0.90;;
28934;SDS011;16044;52.726;-2.108;2023-05-07T16:18:55;3.13;;;1.00;;
28934;SDS011;16044;52.726;-2.108;2023-05-07T16:21:42;2.60;;;1.00;;
28934;SDS011;16044;52.726;-2.108;2023-05-07T16:24:30;2.72;;;1.00;;
28934;SDS011;16044;52.726;-2.108;2023-05-07T16:27:18;2.90;;;1.00;;
28934;SDS011;16044;52.726;-2.108;2023-05-07T16:30:06;3.90;;;0.75;;
28934;SDS011;16044;52.726;-2.108;2023-05-07T16:32:54;3.95;;;0.80;;
28934;SDS011;16044;52.726;-2.108;2023-05-07T16:35:42;2.85;;;0.80;;
28934;SDS011;16044;52.726;-2.108;2023-05-07T16:38:33;2.33;;;0.93;;
28934;SDS011;16044;52.726;-2.108;2023-05-07T16:41:21;2.97;;;0.80;;
28934;SDS011;16044;52.726;-2.108;2023-05-07T16:44:08;2.00;;;0.80;;
28934;SDS011;16044;52.726;-2.108;2023-05-07T16:46:56;2.00;;;0.73;;
28934;SDS011;16044;52.726;-2.108;2023-05-07T16:49:44;2.00;;;0.70;;
28934;SDS011;16044;52.726;-2.108;2023-05-07T16:52:31;1.80;;;0.60;;
28934;SDS011;16044;52.726;-2.108;2023-05-07T16:55:19;1.73;;;0.70;;